sensor_id;sensor_type;location;lat;lon;timestamp;P1;durP1;ratioP1;P2;durP2;ratioP2
2031;SDS011;27625;50.422;7.944;2022-10-15T00:02:35;9.43;;;7.40;;
2031;SDS011;27625;50.422;7.944;2022-10-15T00:05:01;7.43;;;6.60;;
2031;SDS011;27625;50.422;7.944;2022-10-15T00:07:28;9.30;;;7.63;;
2031;SDS011;27625;50.422;7.944;2022-10-15T00:09:55;7.27;;;6.30;;
2031;SDS011;27625;50.422;7.944;2022-10-15T00:12:22;8.70;;;7.57;;
2031;SDS011;27625;50.422;7.944;2022-10-15T00:14:48;7.80;;;7.00;;
2031;SDS011;27625;50.422;7.944;2022-10-15T00:17:15;8.77;;;6.67;;
2031;SDS011;27625;50.422;7.944;2022-10-15T00:19:44;11.47;;;8.90;;
2031;SDS011;27625;50.422;7.944;2022-10-15T00:22:11;8.90;;;7.37;;
2031;SDS011;27625;50.422;7.944;2022-10-15T00:24:37;10.00;;;8.67;;
2031;SDS011;27625;50.422;7.944;2022-10-15T00:27:04;11.53;;;8.47;;
2031;SDS011;27625;50.422;7.944;2022-10-15T00:29:30;9.50;;;7.70;;
2031;SDS011;27625;50.422;7.944;2022-10-15T00:31:59;8.43;;;7.43;;
2031;SDS011;27625;50.422;7.944;2022-10-15T00:34:25;12.67;;;9.27;;
2031;SDS011;27625;50.422;7.944;2022-10-15T00:36:53;9.33;;;7.83;;
2031;SDS011;27625;50.422;7.944;2022-10-15T00:39:20;10.03;;;8.03;;
2031;SDS011;27625;50.422;7.944;2022-10-15T00:41:47;8.80;;;7.77;;
2031;SDS011;27625;50.422;7.944;2022-10-15T00:47:12;9.70;;;8.07;;
2031;SDS011;27625;50.422;7.944;2022-10-15T00:49:42;11.17;;;8.63;;
2031;SDS011;27625;50.422;7.944;2022-10-15T00:52:12;10.20;;;8.37;;
2031;SDS011;27625;50.422;7.944;2022-10-15T00:54:42;9.97;;;8.50;;
2031;SDS011;27625;50.422;7.944;2022-10-15T00:57:10;10.07;;;7.90;;
2031;SDS011;27625;50.422;7.944;2022-10-15T00:59:38;8.77;;;7.60;;
2031;SDS011;27625;50.422;7.944;2022-10-15T01:02:08;9.87;;;8.37;;
2031;SDS011;27625;50.422;7.944;2022-10-15T01:04:35;11.60;;;8.03;;
2031;SDS011;27625;50.422;7.944;2022-10-15T01:07:02;9.20;;;7.83;;
2031;SDS011;27625;50.422;7.944;2022-10-15T01:09:30;10.30;;;8.00;;
2031;SDS011;27625;50.422;7.944;2022-10-15T01:11:57;13.43;;;8.50;;
2031;SDS011;27625;50.422;7.944;2022-10-15T01:14:26;9.50;;;7.60;;
2031;SDS011;27625;50.422;7.944;2022-10-15T01:16:58;10.43;;;7.67;;
2031;SDS011;27625;50.422;7.944;2022-10-15T01:19:31;10.07;;;7.90;;
2031;SDS011;27625;50.422;7.944;2022-10-15T01:22:09;9.93;;;8.13;;
2031;SDS011;27625;50.422;7.944;2022-10-15T01:24:43;10.80;;;7.63;;
2031;SDS011;27625;50.422;7.944;2022-10-15T01:27:17;8.70;;;7.30;;
2031;SDS011;27625;50.422;7.944;2022-10-15T01:29:51;8.50;;;6.53;;
2031;SDS011;27625;50.422;7.944;2022-10-15T01:32:31;9.67;;;7.77;;
2031;SDS011;27625;50.422;7.944;2022-10-15T01:35:01;10.63;;;7.47;;
2031;SDS011;27625;50.422;7.944;2022-10-15T01:37:34;9.93;;;8.43;;
2031;SDS011;27625;50.422;7.944;2022-10-15T01:40:04;10.60;;;7.57;;
2031;SDS011;27625;50.422;7.944;2022-10-15T01:42:33;9.73;;;6.77;;
2031;SDS011;27625;50.422;7.944;2022-10-15T01:45:05;8.40;;;6.73;;
2031;SDS011;27625;50.422;7.944;2022-10-15T01:47:36;8.97;;;6.70;;
2031;SDS011;27625;50.422;7.944;2022-10-15T01:50:07;9.13;;;6.87;;
2031;SDS011;27625;50.422;7.944;2022-10-15T01:52:35;8.10;;;6.30;;
2031;SDS011;27625;50.422;7.944;2022-10-15T01:55:04;8.53;;;5.50;;
2031;SDS011;27625;50.422;7.944;2022-10-15T01:57:32;7.20;;;5.60;;
2031;SDS011;27625;50.422;7.944;2022-10-15T01:59:59;8.10;;;5.70;;
2031;SDS011;27625;50.422;7.944;2022-10-15T02:02:28;6.53;;;4.80;;
2031;SDS011;27625;50.422;7.944;2022-10-15T02:04:56;6.50;;;5.10;;
2031;SDS011;27625;50.422;7.944;2022-10-15T02:07:24;8.03;;;4.93;;
2031;SDS011;27625;50.422;7.944;2022-10-15T02:09:56;6.60;;;4.87;;
2031;SDS011;27625;50.422;7.944;2022-10-15T02:12:29;6.40;;;4.80;;
2031;SDS011;27625;50.422;7.944;2022-10-15T02:14:59;6.03;;;4.50;;
2031;SDS011;27625;50.422;7.944;2022-10-15T02:17:30;5.80;;;4.70;;
2031;SDS011;27625;50.422;7.944;2022-10-15T02:20:04;5.67;;;4.80;;
2031;SDS011;27625;50.422;7.944;2022-10-15T02:22:33;4.90;;;4.20;;
2031;SDS011;27625;50.422;7.944;2022-10-15T02:25:05;6.63;;;5.43;;
2031;SDS011;27625;50.422;7.944;2022-10-15T02:27:34;6.30;;;4.97;;
2031;SDS011;27625;50.422;7.944;2022-10-15T02:30:03;5.63;;;4.50;;
2031;SDS011;27625;50.422;7.944;2022-10-15T02:32:41;8.00;;;4.93;;
2031;SDS011;27625;50.422;7.944;2022-10-15T02:35:10;6.97;;;5.50;;
2031;SDS011;27625;50.422;7.944;2022-10-15T02:37:37;5.80;;;4.73;;
2031;SDS011;27625;50.422;7.944;2022-10-15T02:40:06;6.10;;;5.00;;
2031;SDS011;27625;50.422;7.944;2022-10-15T02:42:33;6.40;;;4.67;;
2031;SDS011;27625;50.422;7.944;2022-10-15T02:45:00;6.50;;;5.27;;
2031;SDS011;27625;50.422;7.944;2022-10-15T02:47:27;5.57;;;5.00;;
2031;SDS011;27625;50.422;7.944;2022-10-15T02:49:53;6.87;;;4.60;;
2031;SDS011;27625;50.422;7.944;2022-10-15T02:52:21;6.90;;;5.20;;
2031;SDS011;27625;50.422;7.944;2022-10-15T02:54:48;7.00;;;4.83;;
2031;SDS011;27625;50.422;7.944;2022-10-15T02:57:14;6.43;;;4.50;;
2031;SDS011;27625;50.422;7.944;2022-10-15T02:59:41;5.80;;;4.67;;
2031;SDS011;27625;50.422;7.944;2022-10-15T03:02:08;6.00;;;4.90;;
2031;SDS011;27625;50.422;7.944;2022-10-15T03:04:35;7.80;;;5.00;;
2031;SDS011;27625;50.422;7.944;2022-10-15T03:07:01;6.20;;;4.37;;
2031;SDS011;27625;50.422;7.944;2022-10-15T03:09:29;6.07;;;4.40;;
2031;SDS011;27625;50.422;7.944;2022-10-15T03:11:56;5.00;;;4.13;;
2031;SDS011;27625;50.422;7.944;2022-10-15T03:14:23;6.23;;;4.30;;
2031;SDS011;27625;50.422;7.944;2022-10-15T03:16:49;6.30;;;5.00;;
2031;SDS011;27625;50.422;7.944;2022-10-15T03:19:16;5.60;;;4.57;;
2031;SDS011;27625;50.422;7.944;2022-10-15T03:21:42;6.90;;;4.70;;
2031;SDS011;27625;50.422;7.944;2022-10-15T03:24:09;6.53;;;4.50;;
2031;SDS011;27625;50.422;7.944;2022-10-15T03:26:37;6.07;;;4.40;;
2031;SDS011;27625;50.422;7.944;2022-10-15T03:29:04;6.00;;;4.63;;
2031;SDS011;27625;50.422;7.944;2022-10-15T03:31:31;5.87;;;4.63;;
2031;SDS011;27625;50.422;7.944;2022-10-15T03:33:58;6.03;;;4.37;;
2031;SDS011;27625;50.422;7.944;2022-10-15T03:36:25;5.60;;;4.20;;
2031;SDS011;27625;50.422;7.944;2022-10-15T03:38:51;6.50;;;4.87;;
2031;SDS011;27625;50.422;7.944;2022-10-15T03:41:18;5.63;;;4.23;;
2031;SDS011;27625;50.422;7.944;2022-10-15T03:43:46;5.50;;;4.07;;
2031;SDS011;27625;50.422;7.944;2022-10-15T03:46:12;7.50;;;5.30;;
2031;SDS011;27625;50.422;7.944;2022-10-15T03:48:39;6.33;;;5.10;;
2031;SDS011;27625;50.422;7.944;2022-10-15T03:51:06;9.10;;;5.27;;
2031;SDS011;27625;50.422;7.944;2022-10-15T03:53:33;5.90;;;4.50;;
2031;SDS011;27625;50.422;7.944;2022-10-15T03:56:01;9.37;;;4.40;;
2031;SDS011;27625;50.422;7.944;2022-10-15T03:58:28;5.40;;;4.57;;
2031;SDS011;27625;50.422;7.944;2022-10-15T04:00:57;7.27;;;4.97;;
2031;SDS011;27625;50.422;7.944;2022-10-15T04:03:25;5.90;;;4.60;;
2031;SDS011;27625;50.422;7.944;2022-10-15T04:05:52;6.73;;;5.10;;
2031;SDS011;27625;50.422;7.944;2022-10-15T04:08:19;6.83;;;5.07;;
2031;SDS011;27625;50.422;7.944;2022-10-15T04:10:45;6.10;;;4.80;;
2031;SDS011;27625;50.422;7.944;2022-10-15T04:13:12;7.30;;;5.70;;
2031;SDS011;27625;50.422;7.944;2022-10-15T04:15:39;8.17;;;5.27;;
2031;SDS011;27625;50.422;7.944;2022-10-15T04:18:07;6.30;;;4.67;;
2031;SDS011;27625;50.422;7.944;2022-10-15T04:20:35;6.20;;;3.67;;
2031;SDS011;27625;50.422;7.944;2022-10-15T04:23:03;6.30;;;4.00;;
2031;SDS011;27625;50.422;7.944;2022-10-15T04:25:30;4.73;;;3.40;;
2031;SDS011;27625;50.422;7.944;2022-10-15T04:27:56;4.03;;;3.47;;
2031;SDS011;27625;50.422;7.944;2022-10-15T04:30:23;3.77;;;3.07;;
2031;SDS011;27625;50.422;7.944;2022-10-15T04:32:53;4.03;;;2.60;;
2031;SDS011;27625;50.422;7.944;2022-10-15T04:35:21;4.90;;;2.53;;
2031;SDS011;27625;50.422;7.944;2022-10-15T04:37:48;5.57;;;2.70;;
2031;SDS011;27625;50.422;7.944;2022-10-15T04:40:15;4.70;;;3.30;;
2031;SDS011;27625;50.422;7.944;2022-10-15T04:42:42;4.23;;;2.80;;
2031;SDS011;27625;50.422;7.944;2022-10-15T04:45:08;3.90;;;3.03;;
2031;SDS011;27625;50.422;7.944;2022-10-15T04:47:36;4.30;;;3.00;;
2031;SDS011;27625;50.422;7.944;2022-10-15T04:50:04;4.67;;;3.60;;
2031;SDS011;27625;50.422;7.944;2022-10-15T04:52:33;4.80;;;4.03;;
2031;SDS011;27625;50.422;7.944;2022-10-15T04:55:00;4.90;;;4.20;;
2031;SDS011;27625;50.422;7.944;2022-10-15T04:57:28;5.13;;;4.63;;
2031;SDS011;27625;50.422;7.944;2022-10-15T04:59:56;8.03;;;5.40;;
2031;SDS011;27625;50.422;7.944;2022-10-15T05:02:25;6.10;;;5.10;;
2031;SDS011;27625;50.422;7.944;2022-10-15T05:04:52;9.93;;;6.53;;
2031;SDS011;27625;50.422;7.944;2022-10-15T05:07:19;6.30;;;5.40;;
2031;SDS011;27625;50.422;7.944;2022-10-15T05:09:47;7.37;;;5.47;;
2031;SDS011;27625;50.422;7.944;2022-10-15T05:12:13;5.20;;;4.50;;
2031;SDS011;27625;50.422;7.944;2022-10-15T05:14:40;6.93;;;4.53;;
2031;SDS011;27625;50.422;7.944;2022-10-15T05:17:07;5.90;;;5.10;;
2031;SDS011;27625;50.422;7.944;2022-10-15T05:19:34;8.33;;;5.73;;
2031;SDS011;27625;50.422;7.944;2022-10-15T05:22:02;7.13;;;4.93;;
2031;SDS011;27625;50.422;7.944;2022-10-15T05:24:29;6.23;;;4.80;;
2031;SDS011;27625;50.422;7.944;2022-10-15T05:26:57;6.37;;;5.00;;
2031;SDS011;27625;50.422;7.944;2022-10-15T05:29:24;6.30;;;4.93;;
2031;SDS011;27625;50.422;7.944;2022-10-15T05:31:51;7.80;;;6.03;;
2031;SDS011;27625;50.422;7.944;2022-10-15T05:34:17;7.53;;;6.20;;
2031;SDS011;27625;50.422;7.944;2022-10-15T05:36:44;9.47;;;6.53;;
2031;SDS011;27625;50.422;7.944;2022-10-15T05:39:10;8.33;;;6.23;;
2031;SDS011;27625;50.422;7.944;2022-10-15T05:41:39;8.03;;;5.70;;
2031;SDS011;27625;50.422;7.944;2022-10-15T05:44:06;6.50;;;5.60;;
2031;SDS011;27625;50.422;7.944;2022-10-15T05:46:33;5.97;;;5.13;;
2031;SDS011;27625;50.422;7.944;2022-10-15T05:49:00;5.97;;;4.47;;
2031;SDS011;27625;50.422;7.944;2022-10-15T05:51:27;6.27;;;5.03;;
2031;SDS011;27625;50.422;7.944;2022-10-15T05:53:54;7.80;;;4.50;;
2031;SDS011;27625;50.422;7.944;2022-10-15T05:56:21;7.77;;;5.40;;
2031;SDS011;27625;50.422;7.944;2022-10-15T05:58:48;6.37;;;5.13;;
2031;SDS011;27625;50.422;7.944;2022-10-15T06:01:17;6.50;;;5.80;;
2031;SDS011;27625;50.422;7.944;2022-10-15T06:03:43;7.10;;;4.80;;
2031;SDS011;27625;50.422;7.944;2022-10-15T06:06:14;5.13;;;4.03;;
2031;SDS011;27625;50.422;7.944;2022-10-15T06:08:42;6.60;;;4.90;;
2031;SDS011;27625;50.422;7.944;2022-10-15T06:11:09;5.83;;;4.67;;
2031;SDS011;27625;50.422;7.944;2022-10-15T06:13:36;4.80;;;4.30;;
2031;SDS011;27625;50.422;7.944;2022-10-15T06:16:04;5.90;;;4.60;;
2031;SDS011;27625;50.422;7.944;2022-10-15T06:18:33;6.50;;;5.13;;
2031;SDS011;27625;50.422;7.944;2022-10-15T06:21:00;5.40;;;4.10;;
2031;SDS011;27625;50.422;7.944;2022-10-15T06:23:27;5.80;;;4.67;;
2031;SDS011;27625;50.422;7.944;2022-10-15T06:25:53;6.10;;;4.70;;
2031;SDS011;27625;50.422;7.944;2022-10-15T06:28:20;7.67;;;5.73;;
2031;SDS011;27625;50.422;7.944;2022-10-15T06:30:47;5.93;;;4.97;;
2031;SDS011;27625;50.422;7.944;2022-10-15T06:33:13;6.60;;;5.10;;
2031;SDS011;27625;50.422;7.944;2022-10-15T06:35:49;6.80;;;5.43;;
2031;SDS011;27625;50.422;7.944;2022-10-15T06:38:16;5.10;;;3.90;;
2031;SDS011;27625;50.422;7.944;2022-10-15T06:40:43;5.53;;;4.30;;
2031;SDS011;27625;50.422;7.944;2022-10-15T06:43:10;5.90;;;3.87;;
2031;SDS011;27625;50.422;7.944;2022-10-15T06:45:40;7.20;;;4.50;;
2031;SDS011;27625;50.422;7.944;2022-10-15T06:48:08;5.80;;;4.37;;
2031;SDS011;27625;50.422;7.944;2022-10-15T06:50:36;5.70;;;4.50;;
2031;SDS011;27625;50.422;7.944;2022-10-15T06:53:09;6.20;;;4.40;;
2031;SDS011;27625;50.422;7.944;2022-10-15T06:55:35;5.47;;;4.73;;
2031;SDS011;27625;50.422;7.944;2022-10-15T06:58:03;8.00;;;5.30;;
2031;SDS011;27625;50.422;7.944;2022-10-15T07:00:30;6.67;;;4.50;;
2031;SDS011;27625;50.422;7.944;2022-10-15T07:03:01;5.93;;;4.40;;
2031;SDS011;27625;50.422;7.944;2022-10-15T07:05:28;5.40;;;3.83;;
2031;SDS011;27625;50.422;7.944;2022-10-15T07:07:55;4.80;;;3.97;;
2031;SDS011;27625;50.422;7.944;2022-10-15T07:10:24;5.63;;;4.53;;
2031;SDS011;27625;50.422;7.944;2022-10-15T07:12:51;4.87;;;3.90;;
2031;SDS011;27625;50.422;7.944;2022-10-15T07:15:19;5.97;;;4.23;;
2031;SDS011;27625;50.422;7.944;2022-10-15T07:17:46;5.37;;;3.97;;
2031;SDS011;27625;50.422;7.944;2022-10-15T07:20:13;6.83;;;4.40;;
2031;SDS011;27625;50.422;7.944;2022-10-15T07:22:40;4.97;;;3.90;;
2031;SDS011;27625;50.422;7.944;2022-10-15T07:25:07;7.27;;;3.83;;
2031;SDS011;27625;50.422;7.944;2022-10-15T07:27:36;4.77;;;3.80;;
2031;SDS011;27625;50.422;7.944;2022-10-15T07:30:04;5.00;;;4.23;;
2031;SDS011;27625;50.422;7.944;2022-10-15T07:32:32;4.67;;;3.80;;
2031;SDS011;27625;50.422;7.944;2022-10-15T07:34:59;5.20;;;3.70;;
2031;SDS011;27625;50.422;7.944;2022-10-15T07:37:26;4.80;;;3.70;;
2031;SDS011;27625;50.422;7.944;2022-10-15T07:39:53;4.40;;;3.40;;
2031;SDS011;27625;50.422;7.944;2022-10-15T07:42:20;6.10;;;3.57;;
2031;SDS011;27625;50.422;7.944;2022-10-15T07:44:49;5.53;;;3.90;;
2031;SDS011;27625;50.422;7.944;2022-10-15T07:47:15;7.50;;;3.80;;
2031;SDS011;27625;50.422;7.944;2022-10-15T07:49:42;5.67;;;4.57;;
2031;SDS011;27625;50.422;7.944;2022-10-15T07:52:09;4.40;;;3.90;;
2031;SDS011;27625;50.422;7.944;2022-10-15T07:54:35;5.00;;;3.70;;
2031;SDS011;27625;50.422;7.944;2022-10-15T07:57:02;5.87;;;4.47;;
2031;SDS011;27625;50.422;7.944;2022-10-15T07:59:31;5.53;;;3.90;;
2031;SDS011;27625;50.422;7.944;2022-10-15T08:01:59;4.10;;;3.40;;
2031;SDS011;27625;50.422;7.944;2022-10-15T08:04:26;4.93;;;3.70;;
2031;SDS011;27625;50.422;7.944;2022-10-15T08:06:55;4.37;;;3.67;;
2031;SDS011;27625;50.422;7.944;2022-10-15T08:09:22;5.40;;;3.90;;
2031;SDS011;27625;50.422;7.944;2022-10-15T08:11:49;8.67;;;7.30;;
2031;SDS011;27625;50.422;7.944;2022-10-15T08:14:15;11.73;;;10.30;;
2031;SDS011;27625;50.422;7.944;2022-10-15T08:16:42;4.10;;;3.47;;
2031;SDS011;27625;50.422;7.944;2022-10-15T08:19:10;4.70;;;4.10;;
2031;SDS011;27625;50.422;7.944;2022-10-15T08:21:37;5.57;;;3.93;;
2031;SDS011;27625;50.422;7.944;2022-10-15T08:24:04;3.60;;;2.90;;
2031;SDS011;27625;50.422;7.944;2022-10-15T08:26:31;3.40;;;2.90;;
2031;SDS011;27625;50.422;7.944;2022-10-15T08:28:58;9.60;;;3.23;;
2031;SDS011;27625;50.422;7.944;2022-10-15T08:31:25;3.53;;;3.23;;
2031;SDS011;27625;50.422;7.944;2022-10-15T08:33:52;3.40;;;2.80;;
2031;SDS011;27625;50.422;7.944;2022-10-15T08:36:20;4.50;;;3.33;;
2031;SDS011;27625;50.422;7.944;2022-10-15T08:38:46;7.83;;;4.47;;
2031;SDS011;27625;50.422;7.944;2022-10-15T08:41:17;4.23;;;2.90;;
2031;SDS011;27625;50.422;7.944;2022-10-15T08:43:47;4.90;;;3.73;;
2031;SDS011;27625;50.422;7.944;2022-10-15T08:46:15;6.90;;;5.87;;
2031;SDS011;27625;50.422;7.944;2022-10-15T08:48:46;6.30;;;4.43;;
2031;SDS011;27625;50.422;7.944;2022-10-15T08:51:15;6.03;;;4.87;;
2031;SDS011;27625;50.422;7.944;2022-10-15T08:53:46;4.30;;;2.67;;
2031;SDS011;27625;50.422;7.944;2022-10-15T08:56:16;5.50;;;2.97;;
2031;SDS011;27625;50.422;7.944;2022-10-15T08:58:47;4.90;;;4.50;;
2031;SDS011;27625;50.422;7.944;2022-10-15T09:01:18;3.27;;;2.83;;
2031;SDS011;27625;50.422;7.944;2022-10-15T09:03:50;3.00;;;2.27;;
2031;SDS011;27625;50.422;7.944;2022-10-15T09:06:22;5.00;;;2.63;;
2031;SDS011;27625;50.422;7.944;2022-10-15T09:08:52;3.00;;;2.20;;
2031;SDS011;27625;50.422;7.944;2022-10-15T09:11:29;2.97;;;2.10;;
2031;SDS011;27625;50.422;7.944;2022-10-15T09:14:02;3.30;;;2.10;;
2031;SDS011;27625;50.422;7.944;2022-10-15T09:16:31;4.10;;;2.43;;
2031;SDS011;27625;50.422;7.944;2022-10-15T09:19:01;3.90;;;2.10;;
2031;SDS011;27625;50.422;7.944;2022-10-15T09:21:29;3.93;;;2.10;;
2031;SDS011;27625;50.422;7.944;2022-10-15T09:24:00;3.63;;;2.10;;
2031;SDS011;27625;50.422;7.944;2022-10-15T09:26:31;7.67;;;2.30;;
2031;SDS011;27625;50.422;7.944;2022-10-15T09:29:09;2.67;;;1.97;;
2031;SDS011;27625;50.422;7.944;2022-10-15T09:31:42;3.33;;;1.97;;
2031;SDS011;27625;50.422;7.944;2022-10-15T09:34:13;2.40;;;1.70;;
2031;SDS011;27625;50.422;7.944;2022-10-15T09:36:46;2.70;;;1.80;;
2031;SDS011;27625;50.422;7.944;2022-10-15T09:42:06;9.40;;;6.30;;
2031;SDS011;27625;50.422;7.944;2022-10-15T09:44:40;6.53;;;4.77;;
2031;SDS011;27625;50.422;7.944;2022-10-15T09:47:14;4.17;;;2.10;;
2031;SDS011;27625;50.422;7.944;2022-10-15T09:49:42;3.00;;;2.20;;
2031;SDS011;27625;50.422;7.944;2022-10-15T09:52:10;2.23;;;1.57;;
2031;SDS011;27625;50.422;7.944;2022-10-15T09:54:44;3.00;;;1.70;;
2031;SDS011;27625;50.422;7.944;2022-10-15T09:57:16;2.27;;;1.70;;
2031;SDS011;27625;50.422;7.944;2022-10-15T09:59:53;2.50;;;1.40;;
2031;SDS011;27625;50.422;7.944;2022-10-15T10:02:21;5.30;;;1.63;;
2031;SDS011;27625;50.422;7.944;2022-10-15T10:04:48;2.23;;;1.70;;
2031;SDS011;27625;50.422;7.944;2022-10-15T10:07:31;2.80;;;1.77;;
2031;SDS011;27625;50.422;7.944;2022-10-15T10:10:02;3.27;;;1.60;;
2031;SDS011;27625;50.422;7.944;2022-10-15T10:12:31;2.60;;;1.60;;
2031;SDS011;27625;50.422;7.944;2022-10-15T10:15:00;2.10;;;1.40;;
2031;SDS011;27625;50.422;7.944;2022-10-15T10:17:34;2.00;;;1.40;;
2031;SDS011;27625;50.422;7.944;2022-10-15T10:20:02;76.40;;;16.53;;
2031;SDS011;27625;50.422;7.944;2022-10-15T10:22:44;3.70;;;1.50;;
2031;SDS011;27625;50.422;7.944;2022-10-15T10:28:31;2.40;;;1.60;;
2031;SDS011;27625;50.422;7.944;2022-10-15T10:31:01;3.57;;;1.77;;
2031;SDS011;27625;50.422;7.944;2022-10-15T10:33:29;2.20;;;1.50;;
2031;SDS011;27625;50.422;7.944;2022-10-15T10:35:57;2.77;;;1.50;;
2031;SDS011;27625;50.422;7.944;2022-10-15T10:38:26;2.47;;;1.30;;
2031;SDS011;27625;50.422;7.944;2022-10-15T10:40:59;5.67;;;1.30;;
2031;SDS011;27625;50.422;7.944;2022-10-15T10:43:31;6.03;;;1.40;;
2031;SDS011;27625;50.422;7.944;2022-10-15T10:46:00;3.60;;;1.60;;
2031;SDS011;27625;50.422;7.944;2022-10-15T10:48:39;2.27;;;1.40;;
2031;SDS011;27625;50.422;7.944;2022-10-15T10:51:09;1.83;;;1.10;;
2031;SDS011;27625;50.422;7.944;2022-10-15T10:53:40;2.27;;;1.50;;
2031;SDS011;27625;50.422;7.944;2022-10-15T10:56:13;2.10;;;1.33;;
2031;SDS011;27625;50.422;7.944;2022-10-15T10:58:43;3.30;;;1.57;;
2031;SDS011;27625;50.422;7.944;2022-10-15T11:01:11;3.10;;;1.53;;
2031;SDS011;27625;50.422;7.944;2022-10-15T11:03:38;3.20;;;1.80;;
2031;SDS011;27625;50.422;7.944;2022-10-15T11:06:14;2.00;;;1.10;;
2031;SDS011;27625;50.422;7.944;2022-10-15T11:08:49;4.40;;;1.50;;
2031;SDS011;27625;50.422;7.944;2022-10-15T11:11:24;4.77;;;1.53;;
2031;SDS011;27625;50.422;7.944;2022-10-15T11:13:58;3.00;;;1.40;;
2031;SDS011;27625;50.422;7.944;2022-10-15T11:16:31;2.17;;;1.20;;
2031;SDS011;27625;50.422;7.944;2022-10-15T11:19:11;4.00;;;1.40;;
2031;SDS011;27625;50.422;7.944;2022-10-15T11:21:48;2.87;;;1.20;;
2031;SDS011;27625;50.422;7.944;2022-10-15T11:24:24;3.13;;;1.20;;
2031;SDS011;27625;50.422;7.944;2022-10-15T11:27:02;3.60;;;1.43;;
2031;SDS011;27625;50.422;7.944;2022-10-15T11:29:37;1.90;;;1.23;;
2031;SDS011;27625;50.422;7.944;2022-10-15T11:32:10;2.47;;;1.40;;
2031;SDS011;27625;50.422;7.944;2022-10-15T11:34:43;2.80;;;1.37;;
2031;SDS011;27625;50.422;7.944;2022-10-15T11:37:22;2.27;;;1.37;;
2031;SDS011;27625;50.422;7.944;2022-10-15T11:40:01;2.33;;;1.43;;
2031;SDS011;27625;50.422;7.944;2022-10-15T11:42:40;3.47;;;2.27;;
2031;SDS011;27625;50.422;7.944;2022-10-15T11:45:20;5.77;;;4.50;;
2031;SDS011;27625;50.422;7.944;2022-10-15T11:47:55;6.60;;;5.53;;
2031;SDS011;27625;50.422;7.944;2022-10-15T11:50:26;4.57;;;3.13;;
2031;SDS011;27625;50.422;7.944;2022-10-15T11:53:00;5.60;;;3.00;;
2031;SDS011;27625;50.422;7.944;2022-10-15T11:55:36;3.40;;;2.53;;
2031;SDS011;27625;50.422;7.944;2022-10-15T11:58:09;4.03;;;2.50;;
2031;SDS011;27625;50.422;7.944;2022-10-15T12:00:39;2.50;;;1.80;;
2031;SDS011;27625;50.422;7.944;2022-10-15T12:03:11;6.80;;;1.70;;
2031;SDS011;27625;50.422;7.944;2022-10-15T12:05:43;5.40;;;3.40;;
2031;SDS011;27625;50.422;7.944;2022-10-15T12:08:11;2.53;;;2.03;;
2031;SDS011;27625;50.422;7.944;2022-10-15T12:10:45;2.83;;;2.20;;
2031;SDS011;27625;50.422;7.944;2022-10-15T12:13:23;3.00;;;2.20;;
2031;SDS011;27625;50.422;7.944;2022-10-15T12:15:55;3.27;;;1.90;;
2031;SDS011;27625;50.422;7.944;2022-10-15T12:18:26;2.83;;;1.80;;
2031;SDS011;27625;50.422;7.944;2022-10-15T12:20:57;3.30;;;2.87;;
2031;SDS011;27625;50.422;7.944;2022-10-15T12:23:25;9.80;;;8.80;;
2031;SDS011;27625;50.422;7.944;2022-10-15T12:26:12;5.67;;;2.40;;
2031;SDS011;27625;50.422;7.944;2022-10-15T12:28:54;3.60;;;2.40;;
2031;SDS011;27625;50.422;7.944;2022-10-15T12:31:21;11.73;;;2.27;;
2031;SDS011;27625;50.422;7.944;2022-10-15T12:33:49;5.90;;;2.13;;
2031;SDS011;27625;50.422;7.944;2022-10-15T12:36:20;5.53;;;2.23;;
2031;SDS011;27625;50.422;7.944;2022-10-15T12:38:54;5.50;;;2.27;;
2031;SDS011;27625;50.422;7.944;2022-10-15T12:41:29;3.37;;;2.43;;
2031;SDS011;27625;50.422;7.944;2022-10-15T12:44:04;3.80;;;1.90;;
2031;SDS011;27625;50.422;7.944;2022-10-15T12:46:34;3.53;;;2.00;;
2031;SDS011;27625;50.422;7.944;2022-10-15T12:49:03;2.80;;;1.90;;
2031;SDS011;27625;50.422;7.944;2022-10-15T12:55:21;5.20;;;4.23;;
2031;SDS011;27625;50.422;7.944;2022-10-15T12:57:51;5.50;;;5.00;;
2031;SDS011;27625;50.422;7.944;2022-10-15T13:00:29;2.90;;;2.40;;
2031;SDS011;27625;50.422;7.944;2022-10-15T13:03:07;2.93;;;2.63;;
2031;SDS011;27625;50.422;7.944;2022-10-15T13:05:46;3.40;;;2.40;;
2031;SDS011;27625;50.422;7.944;2022-10-15T13:08:14;3.10;;;2.20;;
2031;SDS011;27625;50.422;7.944;2022-10-15T13:10:46;4.53;;;2.87;;
2031;SDS011;27625;50.422;7.944;2022-10-15T13:13:14;2.83;;;2.30;;
2031;SDS011;27625;50.422;7.944;2022-10-15T13:15:50;4.20;;;2.93;;
2031;SDS011;27625;50.422;7.944;2022-10-15T13:18:18;7.17;;;3.47;;
2031;SDS011;27625;50.422;7.944;2022-10-15T13:20:46;4.37;;;3.10;;
2031;SDS011;27625;50.422;7.944;2022-10-15T13:23:16;6.30;;;4.13;;
2031;SDS011;27625;50.422;7.944;2022-10-15T13:25:45;5.50;;;3.10;;
2031;SDS011;27625;50.422;7.944;2022-10-15T13:28:31;2.87;;;2.27;;
2031;SDS011;27625;50.422;7.944;2022-10-15T13:31:00;3.00;;;2.40;;
2031;SDS011;27625;50.422;7.944;2022-10-15T13:33:27;2.97;;;2.40;;
2031;SDS011;27625;50.422;7.944;2022-10-15T13:35:54;2.40;;;1.60;;
2031;SDS011;27625;50.422;7.944;2022-10-15T13:38:22;2.40;;;1.70;;
2031;SDS011;27625;50.422;7.944;2022-10-15T13:40:50;7.90;;;2.07;;
2031;SDS011;27625;50.422;7.944;2022-10-15T13:43:19;3.00;;;1.83;;
2031;SDS011;27625;50.422;7.944;2022-10-15T13:45:47;2.93;;;2.10;;
2031;SDS011;27625;50.422;7.944;2022-10-15T13:48:19;3.40;;;2.57;;
2031;SDS011;27625;50.422;7.944;2022-10-15T13:50:47;3.90;;;2.00;;
2031;SDS011;27625;50.422;7.944;2022-10-15T13:53:17;3.43;;;2.10;;
2031;SDS011;27625;50.422;7.944;2022-10-15T13:55:48;2.47;;;1.67;;
2031;SDS011;27625;50.422;7.944;2022-10-15T13:58:16;2.60;;;1.80;;
2031;SDS011;27625;50.422;7.944;2022-10-15T14:00:48;2.53;;;1.60;;
2031;SDS011;27625;50.422;7.944;2022-10-15T14:03:21;5.43;;;2.00;;
2031;SDS011;27625;50.422;7.944;2022-10-15T14:05:49;2.47;;;1.40;;
2031;SDS011;27625;50.422;7.944;2022-10-15T14:08:18;4.60;;;1.90;;
2031;SDS011;27625;50.422;7.944;2022-10-15T14:10:47;2.43;;;1.70;;
2031;SDS011;27625;50.422;7.944;2022-10-15T14:13:16;6.83;;;2.10;;
2031;SDS011;27625;50.422;7.944;2022-10-15T14:15:44;3.60;;;2.20;;
2031;SDS011;27625;50.422;7.944;2022-10-15T14:18:14;3.50;;;1.40;;
2031;SDS011;27625;50.422;7.944;2022-10-15T14:20:45;2.23;;;1.20;;
2031;SDS011;27625;50.422;7.944;2022-10-15T14:23:14;4.80;;;1.50;;
2031;SDS011;27625;50.422;7.944;2022-10-15T14:25:42;2.13;;;1.50;;
2031;SDS011;27625;50.422;7.944;2022-10-15T14:28:15;2.20;;;1.30;;
2031;SDS011;27625;50.422;7.944;2022-10-15T14:30:44;2.77;;;1.40;;
2031;SDS011;27625;50.422;7.944;2022-10-15T14:36:10;4.83;;;1.50;;
2031;SDS011;27625;50.422;7.944;2022-10-15T14:38:38;2.53;;;1.60;;
2031;SDS011;27625;50.422;7.944;2022-10-15T14:41:22;2.83;;;1.70;;
2031;SDS011;27625;50.422;7.944;2022-10-15T14:44:00;4.60;;;4.17;;
2031;SDS011;27625;50.422;7.944;2022-10-15T14:46:35;4.63;;;3.40;;
2031;SDS011;27625;50.422;7.944;2022-10-15T14:49:11;3.03;;;2.53;;
2031;SDS011;27625;50.422;7.944;2022-10-15T14:51:43;5.57;;;2.50;;
2031;SDS011;27625;50.422;7.944;2022-10-15T14:54:12;3.20;;;2.30;;
2031;SDS011;27625;50.422;7.944;2022-10-15T14:56:44;4.73;;;2.33;;
2031;SDS011;27625;50.422;7.944;2022-10-15T14:59:12;3.63;;;2.33;;
2031;SDS011;27625;50.422;7.944;2022-10-15T15:01:49;3.83;;;2.73;;
2031;SDS011;27625;50.422;7.944;2022-10-15T15:04:30;3.37;;;2.57;;
2031;SDS011;27625;50.422;7.944;2022-10-15T15:06:59;3.00;;;2.47;;
2031;SDS011;27625;50.422;7.944;2022-10-15T15:09:26;3.10;;;2.37;;
2031;SDS011;27625;50.422;7.944;2022-10-15T15:11:52;4.87;;;2.60;;
2031;SDS011;27625;50.422;7.944;2022-10-15T15:14:19;3.37;;;2.37;;
2031;SDS011;27625;50.422;7.944;2022-10-15T15:16:47;4.13;;;2.30;;
2031;SDS011;27625;50.422;7.944;2022-10-15T15:19:14;2.93;;;2.20;;
2031;SDS011;27625;50.422;7.944;2022-10-15T15:21:41;3.20;;;1.77;;
2031;SDS011;27625;50.422;7.944;2022-10-15T15:24:10;2.47;;;1.50;;
2031;SDS011;27625;50.422;7.944;2022-10-15T15:26:37;2.10;;;1.30;;
2031;SDS011;27625;50.422;7.944;2022-10-15T15:29:07;4.30;;;2.10;;
2031;SDS011;27625;50.422;7.944;2022-10-15T15:31:37;3.70;;;1.87;;